Reno, NV

11:53 AM PDT on August 31, 2015 (GMT -0700)
MidTown | | Change Station
CLOSE
Current Station
Personal Weather Station
Location: Reno, NV
Elevation: 4491 ft
Nearby Weather Stations

Elev 4491 ft 39.52 °N, 119.81 °W | Updated 2 minutes ago

Clear
Clear
75.2 °F
Feels Like 76 °F
N
-
Wind Variable Wind from North

Today
High -- | Low -- °F
--% Chance of Precip.
Yesterday
High -- | Low -- °F
Precip. -- in
6:26 AM 7:31 PM
Waning Gibbous, 94% visible
Pressure 29.94 in
Visibility 10.0 miles
Clouds Clear
Heat Index 76 °F
Dew Point 43 °F
Humidity 24%
Rainfall Not available.
Snow Depth Not available.
UV 8 out of 12
Pollen 8.10 out of 12
Air Quality Not available.
Flu Activity Not available.
METAR KRNO 311755Z VRB03KT 10SM CLR 23/M02 A3009 RMK AO2 SLP139 FU ALF ALQDS T02281022 10228 20111 58008
Pressure 29.94 in
Visibility 10.0 miles
Clouds Clear
Heat Index 76 °F
Dew Point 43 °F
Humidity 24%
Rainfall Not available.
Snow Depth Not available.
UV 8 out of 12
Pollen 8.10 out of 12
Air Quality Not available.
Flu Activity Not available.
METAR KRNO 311755Z VRB03KT 10SM CLR 23/M02 A3009 RMK AO2 SLP139 FU ALF ALQDS T02281022 10228 20111 58008

10-Day Weather Forecast

×

Almanac

Astronomy

Aug. 31, 2015 Rise Set
Actual Time
Civil Twilight
Nautical Twilight
Astronomical Twilight
Moon
Length of Visible Light
Length of Day
Tomorrow will be .
, % of the Moon is Illuminated

Today's Extremes

State Highs State Lows

Community

WunderPhotos

Upload Photos

1,851,334 photos uploaded!

WunderBlogs® & News

Nearby

Air Quality

  Air Quality AQ Index Pollutant
Not available.

Snow Depth

Station Depth Elevation

Earthquake Activity

City Distance Mag. Time & Date
Minimum magnitude displayed is 2.5.

Coastal Water Temperatures

Place Temperature

Stations

Nearby Weather Stations

Station Location Temp. Windchill Dew Point Humidity Wind Precip. Elev Updated Type